Fire Weather Observation
Issued by NWS Grand Junction, CO

Home | Current Version | Previous Version | Text Only | Print | Product List | Glossary Off
Versions: 1 2 3 4 5 6 7 8 9 10 11 12 13 14 15 16 17 18 19 20 21 22 23 24 25 26 27 28 29 30 31 32 33 34

000
SHUS65 KGJT 222014
FWOGJT

DAILY FIRE WEATHER OBSERVATION
NATIONAL WEATHER SERVICE GRAND JUNCTION CO
212 PM MDT THU SEP 22 2016

STATE OF THE WEATHER (W)               1
DRY BULB TEMPERATURE                   85   DEGREES FAHRENHEIT
RELATIVE HUMIDITY (RH)                 20   PERCENT
LIGHTNING ACTIVITY LEVEL
  (LAL - MIDNIGHT TO 2 PM)             1
WIND DIRECTION                         180  DEGREES (C IF CALM)
WIND SPEED                             22   MPH
MAX TEMP (2 PM - 2 PM)                 85   DEGREES FAHRENHEIT
MIN TEMP (2 PM - 2 PM)                 60   DEGREES FAHRENHEIT
MAX RH (2 PM - 2 PM)                   93   PERCENT
MIN RH (2 PM - 2 PM)                   20   PERCENT
PCPN DURATION                          1.3  HOURS
PCPN AMT (2 PM - 2 PM)                 0.01 INCHES
LAL (2 PM - 2 PM)                      1

$$

METAR KGJT 221953Z 18019G26KT 10SM SCT110 29/04 A2981 RMK AO2 PK
      WND 18031/1932 SLP024 T02940044



USA.gov is the U.S. government's official web portal to all federal, state and local government web resources and services.